Time;durP1;ratioP1;P1;durP2;ratioP2;P2;SDS_P1;SDS_P2;PMS_P1;PMS_P2;Temp;Humidity;BMP_temperature;BMP_pressure;BME280_temperature;BME280_humidity;BME280_pressure;Samples;Min_cycle;Max_cycle;Signal;HPM_P1;HPM_P2
2022/05/03 00:00:09;;;;;;;0.30;0.30;;;9.70;60.60;;;;;;5112549;28;20056;-72
2022/05/03 00:02:54;;;;;;;0.10;0.10;;;9.60;60.60;;;;;;5110653;28;20043;-73
2022/05/03 00:05:37;;;;;;;0.10;0.10;;;9.50;60.70;;;;;;5112692;28;20032;-73
2022/05/03 00:08:17;;;;;;;0.10;0.10;;;9.60;60.80;;;;;;5092299;28;20068;-73
2022/05/03 00:11:09;;;;;;;0.10;0.10;;;9.40;60.80;;;;;;5095032;28;20070;-72
2022/05/03 00:13:57;;;;;;;0.15;0.15;;;9.50;60.90;;;;;;5093832;28;20031;-74
2022/05/03 00:16:24;;;;;;;0.30;0.25;;;9.50;61.00;;;;;;5096707;28;20100;-73
2022/05/03 00:18:50;;;;;;;0.10;0.10;;;9.40;61.00;;;;;;5077190;28;20043;-74
2022/05/03 00:21:16;;;;;;;0.20;0.20;;;9.40;61.10;;;;;;5093819;28;20389;-73
2022/05/03 00:23:43;;;;;;;0.20;0.20;;;9.40;61.20;;;;;;5112299;28;20043;-73
2022/05/03 00:26:10;;;;;;;0.10;0.10;;;9.40;61.20;;;;;;5112130;28;20044;-73
2022/05/03 00:28:38;;;;;;;0.30;0.30;;;9.40;61.30;;;;;;5093693;28;20474;-73
2022/05/03 00:31:04;;;;;;;0.30;0.30;;;9.30;61.40;;;;;;5091705;28;20077;-73
2022/05/03 00:33:33;;;;;;;0.20;0.20;;;9.30;61.50;;;;;;5111930;28;20116;-74
2022/05/03 00:35:59;;;;;;;0.38;0.25;;;9.30;61.60;;;;;;5111827;28;20058;-73
2022/05/03 00:38:24;;;;;;;0.20;0.20;;;9.10;61.60;;;;;;5112322;28;20391;-72
2022/05/03 00:40:59;;;;;;;0.20;0.20;;;9.20;61.80;;;;;;5076828;28;20039;-72
2022/05/03 00:43:51;;;;;;;0.30;0.30;;;9.10;61.70;;;;;;5096214;28;20122;-71
2022/05/03 00:46:20;;;;;;;0.60;0.20;;;9.20;61.90;;;;;;5114797;28;20119;-71
2022/05/03 00:49:08;;;;;;;0.30;0.30;;;9.10;61.80;;;;;;5080737;28;20110;-71
2022/05/03 00:52:03;;;;;;;0.30;0.30;;;9.10;61.80;;;;;;5080938;28;20437;-71
2022/05/03 00:54:44;;;;;;;0.20;0.20;;;9.20;61.80;;;;;;5067188;28;20058;-71
2022/05/03 00:57:18;;;;;;;;;;;9.20;61.70;;;;;;5078767;28;20046;-72
2022/05/03 01:00:06;;;;;;;0.20;0.20;;;9.10;61.70;;;;;;5096857;28;19947;-72
2022/05/03 01:02:52;;;;;;;0.20;0.20;;;9.10;61.70;;;;;;5100208;28;20477;-71
2022/05/03 01:05:25;;;;;;;0.10;0.10;;;9.00;62.40;;;;;;5114453;28;20456;-72
2022/05/03 01:08:03;;;;;;;0.22;0.20;;;9.00;61.70;;;;;;5115037;28;20582;-71
2022/05/03 01:10:41;;;;;;;0.43;0.30;;;9.00;61.80;;;;;;5096142;28;20532;-71
2022/05/03 01:13:34;;;;;;;0.20;0.20;;;9.00;61.90;;;;;;5097901;28;20063;-71
2022/05/03 01:16:04;;;;;;;0.30;0.30;;;9.00;62.00;;;;;;5114197;28;20051;-71
2022/05/03 01:18:40;;;;;;;0.15;0.10;;;8.90;62.10;;;;;;5079849;28;20039;-71
2022/05/03 01:21:43;;;;;;;0.32;0.30;;;8.90;62.20;;;;;;5097942;28;20542;-73
2022/05/03 01:24:31;;;;;;;0.20;0.20;;;8.80;62.30;;;;;;5112852;28;20549;-73
2022/05/03 01:27:23;;;;;;;0.52;0.38;;;8.90;62.50;;;;;;5096365;28;20035;-73
2022/05/03 01:29:50;;;;;;;0.20;0.20;;;8.80;62.50;;;;;;5114342;28;20043;-73
2022/05/03 01:32:19;;;;;;;0.30;0.30;;;8.80;62.50;;;;;;5114676;28;20070;-73
2022/05/03 01:34:46;;;;;;;0.25;0.22;;;8.80;62.60;;;;;;5096023;28;20039;-73
2022/05/03 01:37:33;;;;;;;0.30;0.30;;;8.70;62.60;;;;;;5114566;28;20040;-72
2022/05/03 01:40:11;;;;;;;0.30;0.20;;;8.70;62.80;;;;;;5113334;28;20369;-72
2022/05/03 01:43:06;;;;;;;0.82;0.22;;;8.60;62.80;;;;;;5114111;28;20040;-73
2022/05/03 01:45:42;;;;;;;0.28;0.28;;;8.60;62.90;;;;;;5113006;28;20047;-73
2022/05/03 01:50:18;;;;;;;0.30;0.30;;;8.60;62.90;;;;;;5096049;28;20062;-73
2022/05/03 01:51:25;;;;;;;0.80;0.25;;;8.70;63.00;;;;;;5098305;28;20040;-73
2022/05/03 01:54:08;;;;;;;0.38;0.30;;;8.60;62.90;;;;;;5113723;28;20481;-73
2022/05/03 01:56:49;;;;;;;0.30;0.30;;;8.60;62.90;;;;;;5097793;28;20046;-71
2022/05/03 01:59:37;;;;;;;0.20;0.20;;;8.60;63.10;;;;;;5095756;28;20053;-73
2022/05/03 02:02:36;;;;;;;0.30;0.28;;;8.60;63.20;;;;;;5113885;28;20430;-75
2022/05/03 02:05:19;;;;;;;0.17;0.17;;;8.50;63.20;;;;;;5113768;28;20139;-73
2022/05/03 02:07:55;;;;;;;0.30;0.30;;;8.50;63.30;;;;;;5095582;28;20150;-73
2022/05/03 02:10:42;;;;;;;0.20;0.20;;;8.50;63.40;;;;;;5062343;28;20044;-71
2022/05/03 02:14:43;;;;;;;0.20;0.20;;;8.50;63.50;;;;;;5113087;28;20090;-72
2022/05/03 02:16:29;;;;;;;0.15;0.15;;;8.50;63.50;;;;;;5113644;28;20496;-72
2022/05/03 02:19:28;;;;;;;0.35;0.20;;;8.50;63.50;;;;;;5113845;28;20088;-72
2022/05/03 02:22:29;;;;;;;0.10;0.10;;;8.50;63.60;;;;;;5113249;28;20074;-72
2022/05/03 02:25:11;;;;;;;0.35;0.30;;;8.40;63.70;;;;;;5081249;28;20466;-72
2022/05/03 02:27:42;;;;;;;0.30;0.30;;;8.30;63.70;;;;;;5095455;28;20071;-72
2022/05/03 02:30:10;;;;;;;0.25;0.20;;;8.30;63.90;;;;;;5113764;28;20066;-72
2022/05/03 02:32:54;;;;;;;0.38;0.38;;;8.20;64.00;;;;;;5113846;28;20078;-72
2022/05/03 02:35:22;;;;;;;0.25;0.25;;;8.20;64.20;;;;;;5113493;28;20043;-72
2022/05/03 02:37:50;;;;;;;0.30;0.30;;;8.10;64.20;;;;;;5095142;28;20039;-72
2022/05/03 02:40:20;;;;;;;0.25;0.25;;;8.10;64.30;;;;;;5095626;28;20357;-71
2022/05/03 02:42:46;;;;;;;0.20;0.20;;;8.10;64.40;;;;;;5113390;28;20530;-72
2022/05/03 02:45:12;;;;;;;0.40;0.30;;;8.10;64.60;;;;;;5113795;28;20047;-72
2022/05/03 02:48:01;;;;;;;0.40;0.40;;;8.00;64.60;;;;;;5095550;28;20036;-72
2022/05/03 02:50:50;;;;;;;0.28;0.28;;;8.00;64.80;;;;;;5112712;28;20508;-72
2022/05/03 02:53:27;;;;;;;0.43;0.30;;;7.90;64.80;;;;;;5113081;28;20102;-72
2022/05/03 02:55:58;;;;;;;0.50;0.30;;;7.90;64.90;;;;;;5112204;28;20031;-72
2022/05/03 02:58:41;;;;;;;0.20;0.20;;;7.90;64.90;;;;;;5113066;28;20042;-72
2022/05/03 03:04:32;;;;;;;0.20;0.20;;;7.90;64.90;;;;;;5112411;28;20409;-72
2022/05/03 03:06:59;;;;;;;0.38;0.30;;;7.90;64.90;;;;;;5112304;28;20438;-71
2022/05/03 03:09:37;;;;;;;0.28;0.20;;;7.90;64.90;;;;;;5113559;28;20042;-71
2022/05/03 03:12:14;;;;;;;0.55;0.30;;;7.90;64.90;;;;;;5113055;28;20069;-71
2022/05/03 03:14:46;;;;;;;0.20;0.20;;;8.00;65.00;;;;;;5113426;28;20376;-71
2022/05/03 03:17:20;;;;;;;0.30;0.22;;;7.80;65.00;;;;;;5112662;28;20108;-72
2022/05/03 03:20:04;;;;;;;0.25;0.25;;;7.90;65.20;;;;;;5113260;28;20032;-71
2022/05/03 03:22:42;;;;;;;0.32;0.25;;;7.90;65.30;;;;;;5113335;28;20053;-71
2022/05/03 03:25:11;;;;;;;0.38;0.20;;;7.80;65.30;;;;;;5112821;28;20108;-71
2022/05/03 03:27:38;;;;;;;0.52;0.30;;;7.80;65.40;;;;;;5077865;28;20091;-71
2022/05/03 03:30:07;;;;;;;0.30;0.30;;;7.80;65.50;;;;;;5113190;28;20040;-71
2022/05/03 03:32:36;;;;;;;0.63;0.30;;;7.70;65.50;;;;;;5112573;28;20036;-71
2022/05/03 03:35:02;;;;;;;0.20;0.20;;;7.80;65.50;;;;;;5112593;28;20068;-71
2022/05/03 03:37:33;;;;;;;0.22;0.22;;;7.70;65.60;;;;;;5112622;28;20540;-72
2022/05/03 03:39:59;;;;;;;0.20;0.20;;;7.70;65.70;;;;;;5113104;28;20412;-71
2022/05/03 03:42:29;;;;;;;0.30;0.30;;;7.60;65.70;;;;;;5112812;28;20047;-71
2022/05/03 03:45:00;;;;;;;0.30;0.30;;;7.50;65.80;;;;;;5110742;28;20369;-72
2022/05/03 03:47:29;;;;;;;0.17;0.17;;;7.60;66.00;;;;;;5112548;28;20061;-71
2022/05/03 03:49:58;;;;;;;0.60;0.30;;;7.50;66.10;;;;;;5112741;28;20046;-71
2022/05/03 03:52:24;;;;;;;0.50;0.28;;;7.50;66.80;;;;;;5112772;28;20077;-72
2022/05/03 03:54:51;;;;;;;0.40;0.40;;;7.50;66.20;;;;;;5112170;28;20054;-72
2022/05/03 03:57:20;;;;;;;0.35;0.35;;;7.40;66.20;;;;;;5094071;28;20036;-71
2022/05/03 03:59:46;;;;;;;0.30;0.30;;;7.40;66.30;;;;;;5094636;28;20035;-71
2022/05/03 04:02:12;;;;;;;0.32;0.32;;;7.40;66.50;;;;;;5112707;28;20043;-71
2022/05/03 04:04:39;;;;;;;0.38;0.30;;;7.30;66.50;;;;;;5112336;28;20047;-71
2022/05/03 04:07:05;;;;;;;0.30;0.30;;;7.20;66.50;;;;;;5094136;28;20067;-71
2022/05/03 04:09:31;;;;;;;0.30;0.30;;;7.20;66.60;;;;;;5094868;28;20035;-71
2022/05/03 04:12:00;;;;;;;0.30;0.20;;;7.30;66.70;;;;;;5093950;28;20386;-71
2022/05/03 04:14:26;;;;;;;0.30;0.30;;;7.20;66.70;;;;;;5112576;28;20043;-71
2022/05/03 04:16:51;;;;;;;0.38;0.30;;;7.20;66.80;;;;;;5114289;28;20027;-71
2022/05/03 04:19:17;;;;;;;0.50;0.38;;;7.20;66.80;;;;;;5116325;28;20036;-71
2022/05/03 04:21:43;;;;;;;0.40;0.22;;;7.10;66.90;;;;;;5116402;28;20481;-71
2022/05/03 04:24:08;;;;;;;0.30;0.30;;;7.10;66.90;;;;;;5115791;28;20485;-71
2022/05/03 04:26:35;;;;;;;0.47;0.32;;;7.10;66.90;;;;;;5116046;28;20093;-71
2022/05/03 04:29:02;;;;;;;0.40;0.30;;;7.10;67.00;;;;;;5116365;28;20052;-71
2022/05/03 04:31:29;;;;;;;0.75;0.50;;;7.10;67.00;;;;;;5080966;28;20054;-71
2022/05/03 04:33:55;;;;;;;0.25;0.25;;;7.10;67.00;;;;;;5116047;28;20074;-71
2022/05/03 04:36:21;;;;;;;0.52;0.40;;;7.10;67.10;;;;;;5097828;28;20034;-72
2022/05/03 04:38:48;;;;;;;0.43;0.40;;;7.10;67.10;;;;;;5116286;28;20058;-71
2022/05/03 04:41:14;;;;;;;0.60;0.30;;;7.20;67.20;;;;;;5114206;28;20044;-71
2022/05/03 04:43:39;;;;;;;0.30;0.30;;;7.10;67.20;;;;;;5097500;28;20036;-72
2022/05/03 04:46:08;;;;;;;0.60;0.40;;;7.10;67.20;;;;;;5097204;28;20409;-73
2022/05/03 04:48:37;;;;;;;0.65;0.38;;;7.00;67.10;;;;;;5115597;28;20425;-74
2022/05/03 04:51:03;;;;;;;0.30;0.30;;;7.10;67.20;;;;;;5039918;28;20052;-72
2022/05/03 04:53:28;;;;;;;0.38;0.38;;;7.10;67.30;;;;;;5073057;28;20040;-72
2022/05/03 04:55:54;;;;;;;0.50;0.38;;;7.10;67.30;;;;;;5055854;28;20402;-72
2022/05/03 04:58:20;;;;;;;0.30;0.30;;;7.20;67.30;;;;;;5072945;28;20041;-72
2022/05/03 05:00:45;;;;;;;1.00;0.55;;;7.10;67.30;;;;;;5072715;28;20067;-72
2022/05/03 05:03:11;;;;;;;0.20;0.20;;;7.20;67.40;;;;;;5073420;28;20517;-72
2022/05/03 05:05:37;;;;;;;1.13;0.70;;;7.20;67.40;;;;;;5072698;28;20039;-72
2022/05/03 05:08:04;;;;;;;0.38;0.38;;;7.30;67.40;;;;;;5073038;28;20494;-71
2022/05/03 05:10:32;;;;;;;0.65;0.45;;;7.20;67.30;;;;;;5056037;28;20106;-71
2022/05/03 05:12:59;;;;;;;0.20;0.20;;;7.30;67.40;;;;;;5055928;28;20053;-71
2022/05/03 05:15:25;;;;;;;0.80;0.50;;;7.30;67.30;;;;;;5056015;28;20041;-72
2022/05/03 05:17:53;;;;;;;0.30;0.22;;;7.30;67.30;;;;;;5072550;28;20051;-71
2022/05/03 05:20:19;;;;;;;0.40;0.40;;;7.40;67.30;;;;;;5072627;28;20051;-71
2022/05/03 05:22:45;;;;;;;0.70;0.60;;;7.40;67.20;;;;;;5089446;28;20039;-71
2022/05/03 05:25:11;;;;;;;1.05;0.50;;;7.40;67.30;;;;;;5115118;28;20057;-71
2022/05/03 05:27:37;;;;;;;1.02;0.60;;;7.50;67.30;;;;;;5114465;28;20031;-71
2022/05/03 05:30:06;;;;;;;0.90;0.70;;;7.50;67.20;;;;;;5114707;28;20439;-71
2022/05/03 05:32:32;;;;;;;0.38;0.30;;;7.60;67.30;;;;;;5114679;28;20426;-71
2022/05/03 05:34:57;;;;;;;0.75;0.60;;;7.60;67.20;;;;;;5096630;28;20089;-72
2022/05/03 05:37:23;;;;;;;0.98;0.50;;;7.70;67.20;;;;;;5115368;28;20036;-72
2022/05/03 05:39:49;;;;;;;0.93;0.50;;;7.80;67.20;;;;;;5115105;28;20500;-72
2022/05/03 05:42:15;;;;;;;0.80;0.60;;;7.80;67.80;;;;;;5114737;28;20494;-72
2022/05/03 05:44:40;;;;;;;0.57;0.57;;;7.90;67.10;;;;;;5114591;28;20042;-72
2022/05/03 05:47:06;;;;;;;0.38;0.38;;;7.90;67.10;;;;;;5114627;28;20043;-72
2022/05/03 05:49:32;;;;;;;0.47;0.47;;;7.90;67.00;;;;;;5114454;28;20047;-72
2022/05/03 05:53:31;;;;;;;1.35;0.77;;;8.00;67.00;;;;;;5096745;28;20062;-72
2022/05/03 05:54:44;;;;;;;1.63;0.43;;;8.10;67.00;;;;;;5113763;28;20044;-72
2022/05/03 05:57:10;;;;;;;0.30;0.30;;;8.20;66.90;;;;;;5095990;28;20046;-72
2022/05/03 05:59:35;;;;;;;1.02;0.40;;;8.30;66.80;;;;;;5114563;28;20168;-72
2022/05/03 06:02:01;;;;;;;0.65;0.50;;;8.30;66.80;;;;;;5114580;28;20071;-72
2022/05/03 06:04:27;;;;;;;0.40;0.40;;;8.40;66.60;;;;;;5114212;28;20043;-72
2022/05/03 06:06:54;;;;;;;0.40;0.30;;;8.50;66.50;;;;;;5114322;28;20111;-72
2022/05/03 06:09:20;;;;;;;0.88;0.57;;;8.60;66.50;;;;;;5114197;28;20048;-72
2022/05/03 06:11:46;;;;;;;0.40;0.40;;;8.60;66.30;;;;;;5114516;28;20035;-72
2022/05/03 06:14:11;;;;;;;0.80;0.60;;;8.70;66.30;;;;;;5114114;28;20035;-72
2022/05/03 06:16:54;;;;;;;0.38;0.30;;;8.80;66.10;;;;;;5095896;28;20042;-72
2022/05/03 06:19:20;;;;;;;0.50;0.50;;;8.90;66.00;;;;;;5096202;28;20089;-72
2022/05/03 06:21:47;;;;;;;0.57;0.40;;;9.00;65.80;;;;;;5114476;28;20447;-72
2022/05/03 06:24:13;;;;;;;0.40;0.30;;;9.10;65.70;;;;;;5114388;28;20034;-72
2022/05/03 06:26:39;;;;;;;0.50;0.30;;;9.20;65.50;;;;;;5114301;28;20043;-72
2022/05/03 06:29:06;;;;;;;0.45;0.30;;;9.20;65.30;;;;;;5095783;28;20072;-72
2022/05/03 06:31:34;;;;;;;0.32;0.30;;;9.30;65.20;;;;;;5114277;28;20118;-73
2022/05/03 06:34:01;;;;;;;0.20;0.20;;;9.40;65.00;;;;;;5095517;28;20088;-72
2022/05/03 06:36:26;;;;;;;0.22;0.22;;;9.50;64.80;;;;;;5114308;28;20036;-73
2022/05/03 06:38:52;;;;;;;0.20;0.20;;;9.70;64.70;;;;;;5112679;28;20039;-73
2022/05/03 06:41:18;;;;;;;0.45;0.30;;;9.70;64.40;;;;;;5113831;28;20089;-72
2022/05/03 06:43:44;;;;;;;0.10;0.10;;;9.80;64.20;;;;;;5114392;28;20385;-73
2022/05/03 06:46:10;;;;;;;0.20;0.20;;;9.80;63.90;;;;;;5095773;28;20078;-73
2022/05/03 06:48:37;;;;;;;0.10;0.10;;;9.90;63.60;;;;;;5095351;28;20050;-73
2022/05/03 06:51:03;;;;;;;0.30;0.20;;;10.00;63.40;;;;;;5114005;28;20122;-73
2022/05/03 06:53:29;;;;;;;0.20;0.20;;;10.10;63.20;;;;;;5078546;28;20050;-70
2022/05/03 06:55:55;;;;;;;0.20;0.20;;;10.20;63.00;;;;;;5095354;28;20122;-70
2022/05/03 06:58:20;;;;;;;0.20;0.20;;;10.20;62.70;;;;;;5078390;28;20044;-71
2022/05/03 07:00:46;;;;;;;0.20;0.20;;;10.40;62.60;;;;;;5095481;28;20038;-71
2022/05/03 07:03:12;;;;;;;1.55;0.30;;;10.40;62.30;;;;;;5113886;28;20032;-71
2022/05/03 07:05:39;;;;;;;0.75;0.40;;;10.60;62.30;;;;;;5113284;28;20039;-71
2022/05/03 07:08:07;;;;;;;0.65;0.40;;;10.60;62.00;;;;;;5113902;28;20035;-70
2022/05/03 07:10:33;;;;;;;0.50;0.43;;;10.70;61.90;;;;;;5095552;28;20473;-70
2022/05/03 07:12:58;;;;;;;0.30;0.30;;;10.80;61.80;;;;;;5095173;28;20062;-70
2022/05/03 07:15:24;;;;;;;0.28;0.20;;;10.90;61.80;;;;;;5113162;28;20067;-70
2022/05/03 07:23:11;;;;;;;0.68;0.28;;;11.20;61.50;;;;;;5113098;28;20501;-73
2022/05/03 07:25:38;;;;;;;0.20;0.20;;;11.40;61.40;;;;;;5094741;28;20036;-71
2022/05/03 07:28:05;;;;;;;0.40;0.40;;;11.40;61.20;;;;;;5113362;28;20077;-71
2022/05/03 07:30:31;;;;;;;0.50;0.40;;;11.50;61.10;;;;;;5094970;28;20048;-70
2022/05/03 07:32:57;;;;;;;0.30;0.30;;;11.70;61.10;;;;;;5094744;28;20042;-71
2022/05/03 07:35:24;;;;;;;0.30;0.30;;;11.80;60.90;;;;;;5078563;28;20072;-70
2022/05/03 07:37:51;;;;;;;0.30;0.30;;;11.90;60.80;;;;;;5113114;28;20032;-71
2022/05/03 07:40:17;;;;;;;0.30;0.30;;;12.00;60.80;;;;;;5111004;28;20039;-70
2022/05/03 07:42:43;;;;;;;0.30;0.30;;;12.20;60.80;;;;;;5094826;28;20141;-71
2022/05/03 07:45:10;;;;;;;0.55;0.50;;;12.20;60.60;;;;;;5113347;28;20093;-71
2022/05/03 07:47:36;;;;;;;0.50;0.50;;;12.40;60.40;;;;;;5094591;28;20122;-71
2022/05/03 07:50:05;;;;;;;0.40;0.40;;;12.50;60.10;;;;;;5092523;28;20050;-71
2022/05/03 07:52:31;;;;;;;0.55;0.50;;;12.70;60.00;;;;;;5112546;28;20489;-71
2022/05/03 07:54:57;;;;;;;0.43;0.43;;;13.00;59.90;;;;;;5094285;28;20039;-71
2022/05/03 07:57:23;;;;;;;0.35;0.35;;;13.00;59.70;;;;;;5077525;28;20035;-71
2022/05/03 07:59:50;;;;;;;0.40;0.40;;;13.20;59.60;;;;;;5094382;28;20039;-70
2022/05/03 08:02:16;;;;;;;0.32;0.32;;;13.40;59.30;;;;;;5112373;28;20488;-72
2022/05/03 08:04:42;;;;;;;0.52;0.40;;;13.60;59.00;;;;;;5077253;28;20043;-72
2022/05/03 08:07:08;;;;;;;0.40;0.40;;;13.80;58.90;;;;;;5112941;28;20096;-72
2022/05/03 08:09:36;;;;;;;0.63;0.43;;;14.10;58.80;;;;;;5094365;28;20035;-71
2022/05/03 08:12:03;;;;;;;0.32;0.32;;;14.30;58.70;;;;;;5094003;28;20055;-72
2022/05/03 08:14:29;;;;;;;0.63;0.63;;;14.40;58.60;;;;;;5112419;28;20382;-71
2022/05/03 08:16:55;;;;;;;0.50;0.40;;;14.60;58.40;;;;;;5094381;28;20047;-70
2022/05/03 08:19:22;;;;;;;0.60;0.47;;;14.80;58.40;;;;;;5112092;28;20076;-70
2022/05/03 08:21:48;;;;;;;0.70;0.47;;;14.90;58.40;;;;;;5113019;28;20047;-70
2022/05/03 08:24:14;;;;;;;0.70;0.60;;;15.00;58.40;;;;;;5094148;28;20059;-71
2022/05/03 08:26:40;;;;;;;0.60;0.60;;;15.20;58.50;;;;;;5094131;28;20397;-70
2022/05/03 08:29:06;;;;;;;0.75;0.50;;;15.40;58.40;;;;;;5093820;28;20450;-70
2022/05/03 08:31:32;;;;;;;0.43;0.43;;;15.50;58.30;;;;;;5076779;28;20032;-71
2022/05/03 08:34:02;;;;;;;0.60;0.50;;;15.70;58.30;;;;;;5094548;28;20040;-72
2022/05/03 08:36:29;;;;;;;0.52;0.52;;;15.80;58.20;;;;;;5094653;28;20044;-71
2022/05/03 08:42:01;;;;;;;0.60;0.50;;;16.30;57.90;;;;;;5112050;28;20406;-71
2022/05/03 08:44:21;;;;;;;0.82;0.80;;;16.40;57.80;;;;;;5111929;28;20038;-71
2022/05/03 08:46:50;;;;;;;2.22;1.23;;;16.50;57.90;;;;;;5112655;28;20130;-72
2022/05/03 08:49:17;;;;;;;0.90;0.70;;;16.50;57.60;;;;;;5093903;28;20519;-72
2022/05/03 08:51:43;;;;;;;1.05;0.90;;;16.50;57.90;;;;;;5060240;28;20051;-71
2022/05/03 08:54:10;;;;;;;1.05;0.63;;;16.50;58.10;;;;;;5093570;28;20043;-71
2022/05/03 08:56:37;;;;;;;0.70;0.70;;;16.60;58.30;;;;;;5094082;28;20044;-71
2022/05/03 08:59:03;;;;;;;1.13;0.77;;;16.70;58.80;;;;;;5076884;28;20441;-71
2022/05/03 09:01:28;;;;;;;1.10;0.77;;;16.90;58.10;;;;;;5112034;28;20079;-72
2022/05/03 09:03:55;;;;;;;0.80;0.80;;;17.10;58.10;;;;;;5115436;28;20043;-71
2022/05/03 09:06:41;;;;;;;1.75;1.10;;;17.30;57.90;;;;;;5080481;28;20503;-71
2022/05/03 09:09:10;;;;;;;0.60;0.60;;;17.60;57.40;;;;;;5080673;28;20050;-71
2022/05/03 09:11:54;;;;;;;0.60;0.60;;;17.50;57.50;;;;;;5115547;28;20052;-70
2022/05/03 09:14:37;;;;;;;0.63;0.63;;;17.70;57.70;;;;;;5114167;28;20172;-71
2022/05/03 09:17:03;;;;;;;0.60;0.60;;;17.70;57.70;;;;;;5115054;28;20512;-70
2022/05/03 09:19:29;;;;;;;0.63;0.63;;;17.80;57.70;;;;;;5096510;28;20039;-72
2022/05/03 09:24:57;;;;;;;0.52;0.50;;;18.00;57.90;;;;;;5114864;28;20421;-72
2022/05/03 09:27:25;;;;;;;1.00;0.60;;;17.90;58.50;;;;;;5079912;28;20039;-70
2022/05/03 09:30:11;;;;;;;0.85;0.70;;;17.90;58.20;;;;;;5096736;28;20048;-72
2022/05/03 09:32:40;;;;;;;0.50;0.50;;;17.70;58.30;;;;;;5096386;28;20078;-72
2022/05/03 09:35:26;;;;;;;0.45;0.45;;;17.70;58.50;;;;;;5096836;28;20499;-71
2022/05/03 09:37:52;;;;;;;0.40;0.40;;;17.60;58.70;;;;;;5096453;28;20130;-72
2022/05/03 09:40:18;;;;;;;0.80;0.50;;;17.60;58.90;;;;;;5114868;28;20508;-71
2022/05/03 09:42:52;;;;;;;0.60;0.60;;;17.70;59.00;;;;;;5096988;28;20044;-72
2022/05/03 09:45:23;;;;;;;0.80;0.70;;;17.60;58.90;;;;;;5113741;28;20078;-72
2022/05/03 09:47:51;;;;;;;0.50;0.50;;;17.70;58.90;;;;;;5115405;28;20050;-72
2022/05/03 09:50:37;;;;;;;1.02;0.70;;;17.70;58.90;;;;;;5080144;28;20067;-71
2022/05/03 09:53:20;;;;;;;1.25;0.68;;;17.70;58.70;;;;;;5114898;28;20043;-71
2022/05/03 09:55:48;;;;;;;0.60;0.60;;;17.90;58.60;;;;;;5063176;28;20060;-71
2022/05/03 09:58:17;;;;;;;0.50;0.50;;;18.00;59.00;;;;;;5079560;28;20055;-71
2022/05/03 10:00:46;;;;;;;0.60;0.60;;;18.00;58.30;;;;;;5096382;28;20430;-71
2022/05/03 10:03:13;;;;;;;0.60;0.60;;;18.00;58.10;;;;;;5096123;28;20055;-72
2022/05/03 10:05:40;;;;;;;0.50;0.50;;;18.00;58.20;;;;;;5114386;28;20081;-72
2022/05/03 10:08:10;;;;;;;0.98;0.75;;;18.00;58.40;;;;;;5096985;28;20047;-72
2022/05/03 10:10:39;;;;;;;0.80;0.70;;;18.00;58.50;;;;;;5113654;28;20039;-72
2022/05/03 10:13:05;;;;;;;1.05;0.60;;;17.90;58.40;;;;;;5114100;28;20035;-72
2022/05/03 10:21:03;;;;;;;1.03;0.70;;;18.00;58.50;;;;;;5099716;28;20446;-72
2022/05/03 10:23:33;;;;;;;0.75;0.70;;;18.00;58.40;;;;;;5114789;28;20077;-72
2022/05/03 10:26:01;;;;;;;0.95;0.90;;;18.00;58.30;;;;;;5114672;28;20047;-71
2022/05/03 10:28:56;;;;;;;1.02;0.90;;;18.10;58.20;;;;;;5114647;28;20066;-71
2022/05/03 10:31:22;;;;;;;1.20;1.00;;;18.20;58.20;;;;;;5095583;28;20497;-71
2022/05/03 10:33:48;;;;;;;1.00;0.80;;;18.10;58.10;;;;;;5078616;28;20039;-71
2022/05/03 10:36:46;;;;;;;1.10;0.90;;;18.10;58.10;;;;;;5096201;28;20038;-71
2022/05/03 10:39:22;;;;;;;1.13;0.80;;;18.10;58.10;;;;;;5094893;28;20039;-71
2022/05/03 10:41:56;;;;;;;1.10;0.80;;;18.20;58.00;;;;;;5114073;28;20032;-71
2022/05/03 10:44:44;;;;;;;1.02;0.73;;;18.20;58.00;;;;;;5112141;28;20097;-71
2022/05/03 10:47:11;;;;;;;1.23;0.85;;;18.30;57.90;;;;;;5114266;28;20047;-71
2022/05/03 10:50:17;;;;;;;0.98;0.90;;;18.20;58.00;;;;;;5078626;28;20035;-71
2022/05/03 10:53:14;;;;;;;0.70;0.65;;;18.10;58.30;;;;;;5113351;28;20048;-71
2022/05/03 10:56:03;;;;;;;1.02;0.70;;;18.20;58.30;;;;;;5096792;28;20112;-71
2022/05/03 10:58:31;;;;;;;0.55;0.55;;;18.20;58.30;;;;;;5112545;28;20051;-72
2022/05/03 11:01:02;;;;;;;0.75;0.60;;;18.10;58.40;;;;;;5113543;28;20028;-70
2022/05/03 11:03:29;;;;;;;0.88;0.80;;;18.20;58.50;;;;;;5095164;28;20043;-71
2022/05/03 11:06:34;;;;;;;0.82;0.70;;;18.40;58.30;;;;;;5113938;28;20118;-72
2022/05/03 11:09:08;;;;;;;0.70;0.70;;;18.50;57.70;;;;;;5113255;28;20505;-72
2022/05/03 11:11:54;;;;;;;0.60;0.60;;;18.60;57.50;;;;;;5113193;28;20485;-71
2022/05/03 11:14:44;;;;;;;0.75;0.75;;;18.70;57.40;;;;;;5113028;28;20055;-72
2022/05/03 11:17:10;;;;;;;1.33;0.98;;;18.90;57.20;;;;;;5081393;28;20063;-72
2022/05/03 11:19:39;;;;;;;0.93;0.82;;;18.90;56.90;;;;;;5113315;28;20036;-72
2022/05/03 11:22:14;;;;;;;0.93;0.90;;;19.00;56.80;;;;;;5095083;28;20508;-71
2022/05/03 11:24:44;;;;;;;0.90;0.75;;;18.90;56.90;;;;;;5094413;28;20054;-72
2022/05/03 11:27:11;;;;;;;1.93;0.70;;;19.00;57.00;;;;;;5112974;28;20043;-73
2022/05/03 11:29:41;;;;;;;1.33;0.70;;;19.00;56.80;;;;;;5113034;28;20055;-72
2022/05/03 11:32:08;;;;;;;0.52;0.50;;;18.90;56.80;;;;;;5112730;28;20047;-72
2022/05/03 11:34:34;;;;;;;1.33;0.60;;;18.90;57.00;;;;;;5095076;28;20039;-73
2022/05/03 11:37:02;;;;;;;0.40;0.40;;;18.80;57.20;;;;;;5113099;28;20118;-73
2022/05/03 11:39:28;;;;;;;0.50;0.50;;;18.70;57.50;;;;;;5094994;28;20050;-73
2022/05/03 11:41:54;;;;;;;0.70;0.70;;;18.50;58.30;;;;;;5112766;28;20388;-73
2022/05/03 11:44:20;;;;;;;0.95;0.68;;;18.50;57.70;;;;;;5094516;28;20051;-72
2022/05/03 11:46:48;;;;;;;0.68;0.50;;;18.60;57.80;;;;;;5094495;28;20131;-73
2022/05/03 11:49:16;;;;;;;0.40;0.40;;;18.40;57.90;;;;;;5077814;28;20123;-73
2022/05/03 11:57:16;;;;;;;1.47;0.83;;;18.20;58.50;;;;;;5097352;28;20048;-73
2022/05/03 11:59:42;;;;;;;0.90;0.65;;;18.40;58.20;;;;;;5094482;28;20047;-73
2022/05/03 12:02:15;;;;;;;0.73;0.70;;;18.40;58.10;;;;;;5112907;28;20096;-73
2022/05/03 12:05:16;;;;;;;1.02;0.77;;;18.30;58.10;;;;;;5094699;28;20043;-72
2022/05/03 12:07:48;;;;;;;0.40;0.40;;;18.20;58.20;;;;;;5112627;28;20036;-72
2022/05/03 12:10:41;;;;;;;1.35;0.98;;;18.10;58.30;;;;;;5077015;28;20040;-72
2022/05/03 12:13:26;;;;;;;1.02;0.82;;;18.10;58.20;;;;;;5078945;28;20039;-72
2022/05/03 12:16:08;;;;;;;1.02;0.70;;;18.00;58.10;;;;;;5094603;28;20489;-73
2022/05/03 12:18:39;;;;;;;0.45;0.45;;;18.10;58.40;;;;;;5112506;28;20112;-73
2022/05/03 12:21:11;;;;;;;0.47;0.40;;;17.90;58.40;;;;;;5111108;28;20040;-73
2022/05/03 12:23:40;;;;;;;1.00;0.80;;;17.80;58.60;;;;;;5095545;28;20074;-74
2022/05/03 12:26:25;;;;;;;0.60;0.60;;;17.70;58.80;;;;;;5112822;28;20093;-72
2022/05/03 12:28:54;;;;;;;0.63;0.50;;;17.60;58.70;;;;;;5110895;28;20036;-71
2022/05/03 12:31:21;;;;;;;2.67;0.82;;;17.50;59.00;;;;;;5112588;28;20036;-71
2022/05/03 12:33:52;;;;;;;0.65;0.55;;;17.50;59.10;;;;;;5112004;28;20503;-72
2022/05/03 12:36:35;;;;;;;0.55;0.55;;;17.40;59.20;;;;;;5093950;28;20542;-73
2022/05/03 12:39:17;;;;;;;0.80;0.70;;;17.30;59.20;;;;;;5096938;28;20382;-73
2022/05/03 12:41:45;;;;;;;0.93;0.70;;;17.30;59.20;;;;;;5096222;28;20035;-73
2022/05/03 12:44:14;;;;;;;0.40;0.40;;;17.30;59.30;;;;;;5080818;28;20093;-73
2022/05/03 12:50:04;;;;;;;;;;;17.20;59.20;;;;;;5024143;28;20051;-73
2022/05/03 12:52:30;;;;;;;0.93;0.70;;;17.10;59.30;;;;;;5032844;28;19920;-72
2022/05/03 12:54:56;;;;;;;0.52;0.40;;;17.00;59.30;;;;;;4999863;28;20041;-72
2022/05/03 13:00:01;;;;;;;0.80;0.80;;;16.90;59.40;;;;;;5017616;28;20049;-72
2022/05/03 13:02:27;;;;;;;0.80;0.75;;;16.90;59.40;;;;;;5032545;28;20522;-72
2022/05/03 13:04:53;;;;;;;1.23;1.02;;;16.80;59.40;;;;;;5032664;28;20049;-71
2022/05/03 13:07:22;;;;;;;1.60;1.17;;;16.70;59.50;;;;;;4999597;28;20465;-74
2022/05/03 13:09:52;;;;;;;1.00;0.70;;;16.70;59.60;;;;;;5032284;28;20041;-72
2022/05/03 13:12:28;;;;;;;0.87;0.70;;;16.60;59.60;;;;;;5015653;28;20133;-73
2022/05/03 13:14:56;;;;;;;2.13;1.20;;;16.60;59.70;;;;;;5031778;28;20067;-73
2022/05/03 13:17:38;;;;;;;2.78;1.50;;;16.50;59.60;;;;;;5067150;28;20506;-73
2022/05/03 13:23:42;;;;;;;3.40;1.67;;;16.30;59.90;;;;;;5035739;28;20043;-73
2022/05/03 13:26:07;;;;;;;3.17;1.88;;;16.30;60.20;;;;;;4992656;28;20034;-73
2022/05/03 13:28:33;;;;;;;4.10;2.00;;;16.10;60.30;;;;;;4992853;28;20081;-73
2022/05/03 13:30:59;;;;;;;4.32;2.30;;;16.10;60.50;;;;;;4992796;28;20053;-74
2022/05/03 13:33:25;;;;;;;3.78;1.77;;;16.00;60.80;;;;;;4992685;28;20050;-73
2022/05/03 13:41:13;;;;;;;3.60;1.95;;;15.70;61.40;;;;;;4992645;28;20466;-75
2022/05/03 13:43:39;;;;;;;3.08;1.73;;;15.70;61.60;;;;;;4976398;28;20037;-73
2022/05/03 13:46:05;;;;;;;4.00;2.10;;;15.60;61.70;;;;;;4992740;28;20053;-74
2022/05/03 13:48:31;;;;;;;4.57;2.22;;;15.60;61.80;;;;;;4992229;28;20132;-73
2022/05/03 13:50:56;;;;;;;3.78;1.80;;;15.60;61.90;;;;;;4992923;28;20551;-74
2022/05/03 13:53:22;;;;;;;3.03;1.58;;;15.50;61.90;;;;;;4976684;28;20532;-74
2022/05/03 13:55:48;;;;;;;2.75;1.55;;;15.50;62.00;;;;;;4992813;28;20050;-75